Airfield :
LOGIN :

Register | Disclaimer

   EN    FR    IT 

 










Legend :    VFR   Marginal VFR   IFR   Intensive IFR   Very Intensive IFR
Visi :
Ceiling :
>= 8 km
>= 3000ft
5 to 8 km
1000 to 3000 ft
1500m to 5 km
500 to 1000 ft
800 to 1500m
200 to 500 ft
< 800m
< 200 ft
Symbols :   Thunderstorms  Fog  Heavy snow  Heavy precipitations  Wind > 20 kt
SIGMETs :     Misc.  Thunderstorms  Icing  Turbulence  Mountain Waves  Volcanic Ashes






- Airport Elevation : 2767 ft


LTAE - Akıncı Air Base

CURRENT METAR :
  • 050950Z VRB05KT 9999 SCT040 BKN100 14/07 Q1014 NOSIG RMK RWY21 04007KT 350V080

EXPIRED METARs :
  • 050850Z 35012KT 9999 SCT040 BKN100 13/07 Q1015 NOSIG RMK RWY21 03014KT
  • 050750Z 01013KT 9999 BKN036 BKN090 11/07 Q1016 RESHRA NOSIG RMK RWY21 04012KT 360V080

TAF TAF LTAE
Valid from the 05 at 09:00 until the 05 at 18:00 UTC


050740Z 0509/0518 01011KT 9999 SCT040 BKN100
TEMPO 0509/0512 -SHRA BKN030 BKN090
TEMPO 0513/0517 -SHRA BKN030 BKN090



MET'MAP, your aeronautical weather chart ! - Copyright ORBIFLY December 2007 - Disclaimer

ORBIFLY MET'MAP TEAM :

Programming & Development : Alexandra Zaïnal
Concept & original design : Baudouin d'Aumeries
Assistance for programming : Marc-Olivier Méhu
Technical & hardware support : Manuel Goepfert

Contact : metmap@orbifly.com




SOURCES & CREDITS :

   NOAA